createdAt,value
2018-02-10T00:00:55.954Z,155.80
2018-02-10T00:01:55.922Z,157.60
2018-02-10T00:02:55.879Z,152.10
2018-02-10T00:03:55.849Z,163.80
2018-02-10T00:04:55.814Z,160.80
2018-02-10T00:05:55.774Z,160.60
2018-02-10T00:06:55.738Z,163.50
2018-02-10T00:07:55.701Z,162.60
2018-02-10T00:08:55.665Z,166.30
2018-02-10T00:09:55.627Z,163.80
2018-02-10T00:10:55.899Z,161.50
2018-02-10T00:11:55.572Z,168.80
2018-02-10T00:12:55.525Z,160.80
2018-02-10T00:13:55.497Z,159.80
2018-02-10T00:14:55.451Z,164.40
2018-02-10T00:15:55.416Z,166.00
2018-02-10T00:16:55.393Z,162.50
2018-02-10T00:17:55.350Z,161.00
2018-02-10T00:18:55.311Z,162.70
2018-02-10T00:19:55.269Z,157.70
2018-02-10T00:20:55.239Z,162.70
2018-02-10T00:21:55.205Z,161.30
2018-02-10T00:22:55.520Z,160.00
2018-02-10T00:23:55.141Z,161.90
2018-02-10T00:24:55.091Z,154.60
2018-02-10T00:25:55.107Z,167.40
2018-02-10T00:26:55.033Z,158.90
2018-02-10T00:27:54.991Z,160.70
2018-02-10T00:28:54.959Z,163.00
2018-02-10T00:29:54.918Z,158.90
2018-02-10T00:30:54.881Z,158.10
2018-02-10T00:31:54.839Z,160.90
2018-02-10T00:32:54.818Z,161.70
2018-02-10T00:33:55.076Z,156.80
2018-02-10T00:34:54.736Z,153.70
2018-02-10T00:35:54.698Z,155.80
2018-02-10T00:36:54.669Z,163.00
2018-02-10T00:37:54.628Z,165.80
2018-02-10T00:38:54.595Z,165.70
2018-02-10T00:39:54.565Z,169.40
2018-02-10T00:40:54.521Z,171.80
2018-02-10T00:41:54.491Z,167.60
2018-02-10T00:42:54.456Z,166.20
2018-02-10T00:43:54.423Z,165.70
2018-02-10T00:44:54.386Z,165.30
2018-02-10T00:45:54.350Z,165.60
2018-02-10T00:46:54.309Z,163.70
2018-02-10T00:47:54.273Z,160.80
2018-02-10T00:48:54.245Z,162.40
2018-02-10T00:49:54.205Z,163.60
2018-02-10T00:50:54.413Z,157.10
2018-02-10T00:51:54.124Z,161.30
2018-02-10T00:52:54.099Z,164.80
2018-02-10T00:53:54.057Z,159.60
2018-02-10T00:54:54.030Z,167.80
2018-02-10T00:55:53.990Z,173.20
2018-02-10T00:56:54.294Z,174.90
2018-02-10T00:57:53.914Z,172.30
2018-02-10T00:58:53.882Z,180.70
2018-02-10T00:59:53.849Z,174.70
2018-02-10T01:00:53.808Z,164.90
2018-02-10T01:01:53.774Z,170.40
2018-02-10T01:02:53.734Z,172.40
2018-02-10T01:03:53.698Z,174.00
2018-02-10T01:04:53.663Z,176.80
2018-02-10T01:05:53.627Z,174.10
2018-02-10T01:06:53.590Z,176.70
2018-02-10T01:07:53.557Z,180.30
2018-02-10T01:08:53.816Z,176.40
2018-02-10T01:09:53.488Z,179.40
2018-02-10T01:10:53.449Z,180.50
2018-02-10T01:11:53.412Z,178.60
2018-02-10T01:12:53.370Z,177.20
2018-02-10T01:13:53.364Z,166.90
2018-02-10T01:14:53.306Z,170.50
2018-02-10T01:15:53.269Z,174.00
2018-02-10T01:16:53.232Z,175.30
2018-02-10T01:17:53.197Z,169.40
2018-02-10T01:18:53.157Z,166.50
2018-02-10T01:19:53.121Z,170.00
2018-02-10T01:20:53.086Z,168.90
2018-02-10T01:21:53.052Z,167.90
2018-02-10T01:22:53.010Z,165.30
2018-02-10T01:23:52.977Z,159.10
2018-02-10T01:24:52.946Z,156.10
2018-02-10T01:25:53.152Z,164.00
2018-02-10T01:26:52.878Z,155.80
2018-02-10T01:27:52.844Z,159.20
2018-02-10T01:28:52.799Z,158.40
2018-02-10T01:29:52.759Z,158.80
2018-02-10T01:30:52.723Z,152.40
2018-02-10T01:31:52.995Z,157.80
2018-02-10T01:32:52.658Z,156.80
2018-02-10T01:33:52.630Z,159.10
2018-02-10T01:34:52.579Z,154.30
2018-02-10T01:35:52.549Z,162.30
2018-02-10T01:36:52.511Z,160.10
2018-02-10T01:37:52.732Z,157.30
2018-02-10T01:38:52.431Z,156.60
2018-02-10T01:39:52.397Z,160.60
2018-02-10T01:40:52.361Z,161.90
2018-02-10T01:41:52.330Z,163.80
2018-02-10T01:42:52.294Z,166.50
2018-02-10T01:43:52.264Z,170.60
2018-02-10T01:44:52.222Z,162.50
2018-02-10T01:45:52.180Z,172.80
2018-02-10T01:46:52.154Z,167.50
2018-02-10T01:47:52.114Z,168.50
2018-02-10T01:48:52.083Z,174.70
2018-02-10T01:49:52.039Z,174.40
2018-02-10T01:50:52.003Z,162.80
2018-02-10T01:51:51.977Z,173.10
2018-02-10T01:52:51.934Z,181.80
2018-02-10T01:53:51.898Z,171.60
2018-02-10T01:54:51.861Z,175.40
2018-02-10T01:55:51.823Z,180.80
2018-02-10T01:56:51.785Z,182.70
2018-02-10T01:57:51.757Z,178.90
2018-02-10T01:58:51.724Z,176.20
2018-02-10T01:59:51.684Z,177.40
2018-02-10T02:00:51.650Z,175.50
2018-02-10T02:01:51.911Z,183.70
2018-02-10T02:02:51.568Z,180.30
2018-02-10T02:03:51.530Z,183.90
2018-02-10T02:04:51.496Z,176.90
2018-02-10T02:05:51.459Z,173.90
2018-02-10T02:06:51.431Z,185.70
2018-02-10T02:07:51.645Z,187.40
2018-02-10T02:08:51.352Z,179.60
2018-02-10T02:09:51.321Z,183.00
2018-02-10T02:10:51.289Z,185.60
2018-02-10T02:11:51.248Z,179.90
2018-02-10T02:12:51.210Z,184.80
2018-02-10T02:13:51.181Z,186.30
2018-02-10T02:14:51.133Z,184.50
2018-02-10T02:15:51.108Z,181.90
2018-02-10T02:16:51.076Z,176.60
2018-02-10T02:17:51.030Z,178.70
2018-02-10T02:18:50.992Z,178.70
2018-02-10T02:19:50.958Z,181.20
2018-02-10T02:20:50.915Z,189.00
2018-02-10T02:21:50.886Z,189.70
2018-02-10T02:22:50.856Z,192.70
2018-02-10T02:23:50.815Z,191.50
2018-02-10T02:24:50.777Z,187.30
2018-02-10T02:25:50.738Z,187.60
2018-02-10T02:26:50.706Z,190.50
2018-02-10T02:27:50.671Z,191.70
2018-02-10T02:28:50.630Z,183.80
2018-02-10T02:29:50.848Z,171.70
2018-02-10T02:30:50.555Z,178.20
2018-02-10T02:31:50.523Z,187.80
2018-02-10T02:32:50.491Z,187.20
2018-02-10T02:33:50.454Z,175.20
2018-02-10T02:34:50.412Z,171.20
2018-02-10T02:35:50.726Z,174.70
2018-02-10T02:36:50.355Z,172.20
2018-02-10T02:37:50.302Z,177.80
2018-02-10T02:38:50.276Z,163.70
2018-02-10T02:39:50.235Z,156.10
2018-02-10T02:40:50.190Z,161.60
2018-02-10T02:41:50.163Z,176.30
2018-02-10T02:42:50.127Z,171.10
2018-02-10T02:43:50.086Z,158.50
2018-02-10T02:44:50.052Z,167.10
2018-02-10T02:45:50.014Z,165.80
2018-02-10T02:46:49.980Z,161.60
2018-02-10T02:47:49.938Z,160.00
2018-02-10T02:48:49.910Z,170.60
2018-02-10T02:49:49.872Z,173.50
2018-02-10T02:50:49.832Z,170.40
2018-02-10T02:51:49.795Z,166.90
2018-02-10T02:52:49.759Z,171.80
2018-02-10T02:53:49.970Z,169.50
2018-02-10T02:54:49.696Z,162.00
2018-02-10T02:55:49.662Z,160.50
2018-02-10T02:56:49.612Z,161.60
2018-02-10T02:57:49.577Z,166.20
2018-02-10T02:58:49.545Z,167.40
2018-02-10T02:59:49.511Z,167.90
2018-02-10T03:00:49.478Z,167.60
2018-02-10T03:01:49.439Z,168.40
2018-02-10T03:02:49.397Z,173.70
2018-02-10T03:03:49.359Z,167.10
2018-02-10T03:04:49.339Z,167.20
2018-02-10T03:05:49.296Z,169.20
2018-02-10T03:06:49.252Z,165.80
2018-02-10T03:07:49.217Z,165.50
2018-02-10T03:08:49.182Z,160.30
2018-02-10T03:09:49.137Z,167.60
2018-02-10T03:10:49.417Z,157.30
2018-02-10T03:11:49.072Z,159.60
2018-02-10T03:12:49.038Z,161.70
2018-02-10T03:13:48.995Z,166.40
2018-02-10T03:14:48.967Z,160.40
2018-02-10T03:15:48.930Z,161.70
2018-02-10T03:16:49.146Z,154.80
2018-02-10T03:17:48.860Z,152.20
2018-02-10T03:18:48.813Z,150.40
2018-02-10T03:19:48.784Z,159.40
2018-02-10T03:20:48.748Z,159.60
2018-02-10T03:21:48.714Z,152.10
2018-02-10T03:22:48.670Z,154.70
2018-02-10T03:23:48.631Z,153.20
2018-02-10T03:24:48.600Z,152.70
2018-02-10T03:25:48.560Z,156.40
2018-02-10T03:26:48.532Z,145.80
2018-02-10T03:27:48.492Z,145.40
2018-02-10T03:28:48.458Z,151.00
2018-02-10T03:29:48.412Z,156.40
2018-02-10T03:30:48.385Z,149.90
2018-02-10T03:31:48.346Z,153.50
2018-02-10T03:32:48.314Z,155.30
2018-02-10T03:33:48.271Z,154.70
2018-02-10T03:34:48.237Z,156.50
2018-02-10T03:35:48.196Z,158.40
2018-02-10T03:36:48.169Z,160.40
2018-02-10T03:37:48.125Z,161.30
2018-02-10T03:38:48.092Z,169.50
2018-02-10T03:39:48.051Z,168.00
2018-02-10T03:40:48.319Z,167.50
2018-02-10T03:41:47.981Z,160.40
2018-02-10T03:42:47.955Z,163.40
2018-02-10T03:43:47.906Z,163.40
2018-02-10T03:44:47.869Z,165.40
2018-02-10T03:45:47.832Z,169.60
2018-02-10T03:46:48.102Z,168.70
2018-02-10T03:47:47.766Z,164.50
2018-02-10T03:48:47.728Z,160.00
2018-02-10T03:49:47.686Z,156.90
2018-02-10T03:50:47.652Z,162.50
2018-02-10T03:51:47.614Z,158.60
2018-02-10T03:52:47.580Z,166.50
2018-02-10T03:53:47.541Z,157.10
2018-02-10T03:54:47.512Z,166.90
2018-02-10T03:55:47.470Z,162.30
2018-02-10T03:56:47.432Z,163.00
2018-02-10T03:57:47.398Z,164.70
2018-02-10T03:58:47.364Z,164.60
2018-02-10T03:59:47.327Z,165.40
2018-02-10T04:00:47.282Z,166.50
2018-02-10T04:01:47.249Z,169.90
2018-02-10T04:02:47.213Z,173.20
2018-02-10T04:03:47.177Z,167.90
2018-02-10T04:04:47.399Z,166.70
2018-02-10T04:05:47.110Z,159.30
2018-02-10T04:06:47.065Z,162.20
2018-02-10T04:07:47.037Z,169.80
2018-02-10T04:08:46.994Z,162.00
2018-02-10T04:09:46.959Z,162.90
2018-02-10T04:10:46.927Z,158.70
2018-02-10T04:11:46.892Z,163.90
2018-02-10T04:12:46.851Z,158.70
2018-02-10T04:13:46.820Z,158.30
2018-02-10T04:14:46.786Z,157.80
2018-02-10T04:15:47.036Z,161.10
2018-02-10T04:16:46.711Z,155.80
2018-02-10T04:17:46.667Z,155.80
2018-02-10T04:18:46.628Z,153.70
2018-02-10T04:19:46.593Z,154.20
2018-02-10T04:20:46.803Z,151.60
2018-02-10T04:21:46.520Z,153.20
2018-02-10T04:22:46.490Z,148.80
2018-02-10T04:23:46.446Z,153.00
2018-02-10T04:24:46.408Z,147.30
2018-02-10T04:25:46.372Z,143.50
2018-02-10T04:26:46.334Z,144.60
2018-02-10T04:27:46.358Z,137.90
2018-02-10T04:28:46.263Z,139.60
2018-02-10T04:29:46.232Z,138.80
2018-02-10T04:30:46.192Z,128.70
2018-02-10T04:31:46.151Z,129.00
2018-02-10T04:32:46.124Z,130.80
2018-02-10T04:33:46.082Z,131.90
2018-02-10T04:34:46.048Z,130.50
2018-02-10T04:35:46.013Z,129.40
2018-02-10T04:36:45.969Z,132.40
2018-02-10T04:37:45.930Z,132.50
2018-02-10T04:38:46.154Z,138.80
2018-02-10T04:39:45.859Z,139.60
2018-02-10T04:40:45.822Z,138.70
2018-02-10T04:41:45.782Z,132.00
2018-02-10T04:42:45.751Z,129.50
2018-02-10T04:43:45.715Z,132.90
2018-02-10T04:44:45.676Z,126.00
2018-02-10T04:45:45.639Z,127.20
2018-02-10T04:46:45.597Z,118.80
2018-02-10T04:47:45.573Z,121.70
2018-02-10T04:48:45.532Z,119.90
2018-02-10T04:49:45.493Z,121.80
2018-02-10T04:50:45.452Z,121.90
2018-02-10T04:51:45.421Z,116.70
2018-02-10T04:52:45.382Z,119.30
2018-02-10T04:53:45.341Z,119.40
2018-02-10T04:54:45.313Z,122.40
2018-02-10T04:55:45.521Z,119.40
2018-02-10T04:56:45.233Z,118.60
2018-02-10T04:57:45.203Z,120.90
2018-02-10T04:58:45.162Z,119.80
2018-02-10T04:59:45.129Z,121.90
2018-02-10T05:00:45.090Z,120.20
2018-02-10T05:01:45.407Z,120.20
2018-02-10T05:02:45.014Z,119.90
2018-02-10T05:03:44.982Z,121.30
2018-02-10T05:04:44.946Z,120.70
2018-02-10T05:05:44.907Z,114.10
2018-02-10T05:06:44.873Z,119.90
2018-02-10T05:07:44.830Z,125.00
2018-02-10T05:08:44.801Z,134.30
2018-02-10T05:09:44.754Z,136.40
2018-02-10T05:10:44.723Z,133.90
2018-02-10T05:11:44.687Z,132.00
2018-02-10T05:12:44.646Z,129.30
2018-02-10T05:13:44.907Z,129.00
2018-02-10T05:14:44.574Z,132.60
2018-02-10T05:15:44.538Z,133.30
2018-02-10T05:16:44.504Z,131.00
2018-02-10T05:17:44.468Z,130.60
2018-02-10T05:18:44.428Z,137.10
2018-02-10T05:19:44.391Z,137.10
2018-02-10T05:20:44.360Z,136.60
2018-02-10T05:21:44.321Z,145.30
2018-02-10T05:22:44.335Z,144.10
2018-02-10T05:23:44.246Z,141.90
2018-02-10T05:24:44.205Z,136.10
2018-02-10T05:25:44.466Z,139.70
2018-02-10T05:26:44.145Z,132.20
2018-02-10T05:27:44.102Z,134.50
2018-02-10T05:28:44.060Z,140.50
2018-02-10T05:29:44.021Z,144.40
2018-02-10T05:30:43.992Z,144.60
2018-02-10T05:31:43.951Z,140.70
2018-02-10T05:32:43.917Z,145.00
2018-02-10T05:33:43.882Z,144.50
2018-02-10T05:34:43.833Z,142.10
2018-02-10T05:35:43.802Z,141.40
2018-02-10T05:36:43.773Z,138.40
2018-02-10T05:37:43.989Z,138.20
2018-02-10T05:38:43.695Z,134.80
2018-02-10T05:39:43.654Z,134.70
2018-02-10T05:40:43.616Z,137.40
2018-02-10T05:41:43.575Z,139.00
2018-02-10T05:42:43.545Z,136.30
2018-02-10T05:43:43.506Z,133.10
2018-02-10T05:44:43.468Z,128.50
2018-02-10T05:45:43.428Z,131.00
2018-02-10T05:46:43.395Z,132.10
2018-02-10T05:47:43.364Z,134.90
2018-02-10T05:48:43.574Z,128.80
2018-02-10T05:49:43.294Z,132.80
2018-02-10T05:50:43.251Z,129.00
2018-02-10T05:51:43.212Z,133.90
2018-02-10T05:52:43.185Z,137.90
2018-02-10T05:53:43.140Z,132.20
2018-02-10T05:54:43.397Z,129.00
2018-02-10T05:55:43.065Z,130.00
2018-02-10T05:56:43.028Z,131.70
2018-02-10T05:57:42.995Z,129.50
2018-02-10T05:58:42.956Z,127.30
2018-02-10T05:59:42.926Z,128.90
2018-02-10T06:00:42.886Z,128.70
2018-02-10T06:01:42.843Z,128.70
2018-02-10T06:02:42.816Z,127.40
2018-02-10T06:03:42.773Z,127.10
2018-02-10T06:04:42.735Z,127.10
2018-02-10T06:05:42.706Z,129.70
2018-02-10T06:06:42.657Z,125.40
2018-02-10T06:07:42.618Z,120.90
2018-02-10T06:08:42.592Z,124.10
2018-02-10T06:09:42.552Z,125.60
2018-02-10T06:10:42.531Z,124.00
2018-02-10T06:11:42.475Z,122.50
2018-02-10T06:12:42.435Z,119.80
2018-02-10T06:13:42.399Z,123.30
2018-02-10T06:14:42.365Z,123.60
2018-02-10T06:15:42.333Z,123.10
2018-02-10T06:16:42.294Z,124.80
2018-02-10T06:17:42.254Z,121.90
2018-02-10T06:18:42.218Z,118.70
2018-02-10T06:19:42.175Z,122.20
2018-02-10T06:20:42.203Z,116.70
2018-02-10T06:21:42.105Z,121.40
2018-02-10T06:22:42.088Z,119.90
2018-02-10T06:23:42.048Z,121.30
2018-02-10T06:24:41.996Z,114.50
2018-02-10T06:25:41.962Z,111.30
2018-02-10T06:26:41.928Z,111.20
2018-02-10T06:27:41.889Z,114.80
2018-02-10T06:28:41.854Z,113.60
2018-02-10T06:29:41.820Z,112.20
2018-02-10T06:30:41.779Z,111.70
2018-02-10T06:31:41.742Z,112.10
2018-02-10T06:32:41.704Z,115.10
2018-02-10T06:33:41.668Z,108.90
2018-02-10T06:34:41.631Z,111.50
2018-02-10T06:35:41.589Z,109.40
2018-02-10T06:36:41.555Z,110.80
2018-02-10T06:37:41.514Z,104.70
2018-02-10T06:38:41.487Z,105.20
2018-02-10T06:39:41.449Z,110.80
2018-02-10T06:40:41.406Z,107.00
2018-02-10T06:41:41.365Z,103.80
2018-02-10T06:42:41.338Z,103.60
2018-02-10T06:43:41.297Z,100.60
2018-02-10T06:44:41.256Z,101.10
2018-02-10T06:45:41.228Z,103.00
2018-02-10T06:46:41.183Z,97.90
2018-02-10T06:47:41.150Z,96.90
2018-02-10T06:48:41.109Z,98.50
2018-02-10T06:49:41.077Z,98.40
2018-02-10T06:50:41.031Z,99.10
2018-02-10T06:51:41.001Z,97.90
2018-02-10T06:52:40.959Z,93.90
2018-02-10T06:53:41.175Z,95.30
2018-02-10T06:54:40.943Z,92.90
2018-02-10T06:55:40.853Z,94.10
2018-02-10T06:56:40.816Z,95.40
2018-02-10T06:57:40.770Z,91.10
2018-02-10T06:58:40.744Z,90.80
2018-02-10T06:59:41.005Z,92.70
2018-02-10T07:00:40.670Z,95.80
2018-02-10T07:01:40.629Z,96.10
2018-02-10T07:02:40.590Z,98.30
2018-02-10T07:03:40.555Z,95.70
2018-02-10T07:04:40.523Z,94.50
2018-02-10T07:05:40.480Z,93.80
2018-02-10T07:06:40.471Z,92.40
2018-02-10T07:07:40.405Z,90.80
2018-02-10T07:08:40.367Z,90.80
2018-02-10T07:09:40.333Z,88.80
2018-02-10T07:10:40.302Z,90.90
2018-02-10T07:11:40.262Z,89.70
2018-02-10T07:12:40.219Z,92.40
2018-02-10T07:13:40.246Z,91.10
2018-02-10T07:14:40.154Z,90.20
2018-02-10T07:15:40.114Z,90.00
2018-02-10T07:16:40.082Z,90.40
2018-02-10T07:17:40.042Z,91.70
2018-02-10T07:18:40.008Z,87.50
2018-02-10T07:19:39.959Z,89.10
2018-02-10T07:20:39.932Z,90.00
2018-02-10T07:21:39.895Z,83.50
2018-02-10T07:22:39.857Z,90.10
2018-02-10T07:23:39.817Z,89.70
2018-02-10T07:24:39.779Z,90.90
2018-02-10T07:25:39.748Z,88.10
2018-02-10T07:26:39.711Z,90.00
2018-02-10T07:27:39.688Z,90.20
2018-02-10T07:28:39.634Z,90.40
2018-02-10T07:29:39.600Z,87.60
2018-02-10T07:30:39.567Z,85.50
2018-02-10T07:31:39.530Z,82.40
2018-02-10T07:32:39.497Z,84.80
2018-02-10T07:33:39.459Z,85.50
2018-02-10T07:34:39.419Z,88.30
2018-02-10T07:35:39.381Z,87.50
2018-02-10T07:36:39.348Z,88.20
2018-02-10T07:37:39.311Z,86.50
2018-02-10T07:38:39.298Z,87.20
2018-02-10T07:39:39.235Z,88.20
2018-02-10T07:40:39.216Z,84.70
2018-02-10T07:41:39.161Z,87.30
2018-02-10T07:42:39.136Z,84.60
2018-02-10T07:43:39.104Z,85.40
2018-02-10T07:44:39.061Z,86.00
2018-02-10T07:45:39.017Z,85.90
2018-02-10T07:46:38.989Z,86.40
2018-02-10T07:47:38.954Z,85.50
2018-02-10T07:48:38.919Z,82.10
2018-02-10T07:49:38.883Z,83.60
2018-02-10T07:50:38.841Z,81.80
2018-02-10T07:51:38.811Z,83.90
2018-02-10T07:52:39.080Z,79.40
2018-02-10T07:53:38.749Z,82.50
2018-02-10T07:54:38.701Z,81.40
2018-02-10T07:55:38.672Z,83.50
2018-02-10T07:56:38.631Z,77.90
2018-02-10T07:57:38.598Z,81.40
2018-02-10T07:58:38.820Z,80.60
2018-02-10T07:59:38.537Z,79.50
2018-02-10T08:00:38.495Z,76.00
2018-02-10T08:01:38.457Z,78.60
2018-02-10T08:02:38.428Z,81.80
2018-02-10T08:03:38.402Z,78.60
2018-02-10T08:04:38.607Z,80.30
2018-02-10T08:05:38.323Z,82.60
2018-02-10T08:06:38.290Z,76.50
2018-02-10T08:07:38.254Z,79.80
2018-02-10T08:08:38.231Z,82.60
2018-02-10T08:09:38.188Z,81.90
2018-02-10T08:10:38.154Z,82.90
2018-02-10T08:11:38.115Z,79.00
2018-02-10T08:12:38.087Z,80.60
2018-02-10T08:13:38.052Z,80.50
2018-02-10T08:14:38.023Z,80.90
2018-02-10T08:15:37.984Z,80.50
2018-02-10T08:16:37.948Z,79.70
2018-02-10T08:17:37.929Z,79.80
2018-02-10T08:18:37.884Z,79.00
2018-02-10T08:19:37.848Z,78.40
2018-02-10T08:20:37.819Z,79.20
2018-02-10T08:21:37.782Z,78.90
2018-02-10T08:22:37.745Z,78.40
2018-02-10T08:23:37.767Z,78.70
2018-02-10T08:24:37.687Z,76.70
2018-02-10T08:25:37.647Z,76.00
2018-02-10T08:26:37.617Z,75.70
2018-02-10T08:27:37.591Z,77.30
2018-02-10T08:28:37.807Z,75.70
2018-02-10T08:29:37.524Z,74.30
2018-02-10T08:30:37.483Z,75.10
2018-02-10T08:31:37.456Z,76.00
2018-02-10T08:32:37.432Z,73.80
2018-02-10T08:33:37.394Z,73.40
2018-02-10T08:34:37.611Z,69.40
2018-02-10T08:35:37.328Z,71.50
2018-02-10T08:36:37.287Z,73.10
2018-02-10T08:37:37.267Z,71.20
2018-02-10T08:38:37.227Z,72.00
2018-02-10T08:39:37.200Z,73.10
2018-02-10T08:40:37.224Z,69.10
2018-02-10T08:41:37.139Z,69.90
2018-02-10T08:42:37.106Z,70.40
2018-02-10T08:43:37.073Z,67.30
2018-02-10T08:44:37.040Z,70.60
2018-02-10T08:45:37.009Z,68.50
2018-02-10T08:46:36.971Z,70.10
2018-02-10T08:47:36.942Z,68.40
2018-02-10T08:48:36.912Z,69.60
2018-02-10T08:49:36.884Z,67.50
2018-02-10T08:50:36.847Z,66.20
2018-02-10T08:51:36.812Z,68.40
2018-02-10T08:52:36.791Z,68.30
2018-02-10T08:53:36.757Z,65.90
2018-02-10T08:54:36.728Z,67.00
2018-02-10T08:55:36.697Z,66.80
2018-02-10T08:56:36.665Z,68.00
2018-02-10T08:57:36.632Z,69.20
2018-02-10T08:58:36.851Z,69.70
2018-02-10T08:59:36.570Z,67.00
2018-02-10T09:00:36.553Z,66.10
2018-02-10T09:01:36.505Z,65.80
2018-02-10T09:02:36.507Z,67.80
2018-02-10T09:03:36.441Z,67.20
2018-02-10T09:04:36.421Z,64.80
2018-02-10T09:05:36.387Z,67.50
2018-02-10T09:06:36.353Z,65.60
2018-02-10T09:07:36.321Z,68.10
2018-02-10T09:08:36.292Z,65.50
2018-02-10T09:09:36.261Z,64.40
2018-02-10T09:10:36.537Z,66.70
2018-02-10T09:11:36.203Z,63.90
2018-02-10T09:12:36.174Z,65.20
2018-02-10T09:13:36.145Z,65.90
2018-02-10T09:14:36.117Z,65.40
2018-02-10T09:15:36.086Z,62.00
2018-02-10T09:16:36.057Z,64.50
2018-02-10T09:17:36.028Z,63.00
2018-02-10T09:18:35.996Z,62.00
2018-02-10T09:19:35.964Z,65.10
2018-02-10T09:20:35.942Z,59.60
2018-02-10T09:21:35.912Z,63.50
2018-02-10T09:22:36.174Z,68.70
2018-02-10T09:23:35.845Z,65.10
2018-02-10T09:24:35.818Z,65.30
2018-02-10T09:25:35.792Z,64.40
2018-02-10T09:26:35.769Z,64.10
2018-02-10T09:27:35.737Z,61.60
2018-02-10T09:28:35.708Z,61.50
2018-02-10T09:29:35.675Z,68.30
2018-02-10T09:30:35.651Z,62.50
2018-02-10T09:31:35.623Z,65.70
2018-02-10T09:32:35.591Z,66.00
2018-02-10T09:33:35.564Z,62.40
2018-02-10T09:34:35.534Z,61.80
2018-02-10T09:35:35.503Z,60.60
2018-02-10T09:36:35.478Z,64.40
2018-02-10T09:37:35.499Z,64.30
2018-02-10T09:38:35.421Z,64.20
2018-02-10T09:39:35.386Z,67.50
2018-02-10T09:40:35.362Z,64.90
2018-02-10T09:41:35.339Z,64.60
2018-02-10T09:42:35.305Z,63.80
2018-02-10T09:43:35.278Z,63.10
2018-02-10T09:44:35.247Z,62.90
2018-02-10T09:45:35.223Z,61.30
2018-02-10T09:46:35.192Z,60.60
2018-02-10T09:47:35.177Z,61.90
2018-02-10T09:48:35.140Z,61.00
2018-02-10T09:49:35.142Z,62.40
2018-02-10T09:50:35.075Z,62.50
2018-02-10T09:51:35.053Z,59.30
2018-02-10T09:52:35.025Z,61.10
2018-02-10T09:53:34.997Z,60.40
2018-02-10T09:54:34.968Z,58.70
2018-02-10T09:55:34.939Z,57.90
2018-02-10T09:56:34.909Z,58.20
2018-02-10T09:57:34.880Z,58.20
2018-02-10T09:58:35.117Z,57.00
2018-02-10T09:59:34.828Z,58.50
2018-02-10T10:00:34.802Z,59.00
2018-02-10T10:01:34.770Z,56.20
2018-02-10T10:02:34.745Z,57.20
2018-02-10T10:03:34.719Z,59.40
2018-02-10T10:04:34.945Z,59.70
2018-02-10T10:05:34.672Z,59.10
2018-02-10T10:06:34.638Z,59.80
2018-02-10T10:07:34.608Z,61.60
2018-02-10T10:08:34.614Z,62.70
2018-02-10T10:09:34.561Z,63.40
2018-02-10T10:10:34.616Z,59.70
2018-02-10T10:11:34.501Z,58.60
2018-02-10T10:12:34.481Z,57.10
2018-02-10T10:13:34.447Z,57.10
2018-02-10T10:14:34.421Z,62.50
2018-02-10T10:15:34.396Z,60.60
2018-02-10T10:16:34.363Z,60.80
2018-02-10T10:17:34.345Z,60.90
2018-02-10T10:18:34.340Z,60.20
2018-02-10T10:19:34.287Z,62.40
2018-02-10T10:20:34.301Z,60.50
2018-02-10T10:21:34.242Z,57.70
2018-02-10T10:22:34.199Z,58.70
2018-02-10T10:23:34.174Z,60.30
2018-02-10T10:24:34.153Z,58.40
2018-02-10T10:25:34.126Z,58.40
2018-02-10T10:26:34.093Z,54.80
2018-02-10T10:27:34.073Z,59.30
2018-02-10T10:28:34.299Z,57.90
2018-02-10T10:29:34.020Z,58.90
2018-02-10T10:30:33.993Z,58.60
2018-02-10T10:31:33.965Z,59.80
2018-02-10T10:32:33.939Z,59.10
2018-02-10T10:33:33.917Z,59.10
2018-02-10T10:34:33.880Z,58.00
2018-02-10T10:35:33.854Z,57.50
2018-02-10T10:36:33.834Z,56.90
2018-02-10T10:37:33.806Z,58.10
2018-02-10T10:38:33.798Z,59.50
2018-02-10T10:39:33.761Z,58.60
2018-02-10T10:40:33.775Z,61.40
2018-02-10T10:41:33.698Z,59.90
2018-02-10T10:42:33.676Z,58.70
2018-02-10T10:43:33.652Z,57.90
2018-02-10T10:44:33.634Z,56.80
2018-02-10T10:45:33.602Z,58.80
2018-02-10T10:46:33.873Z,56.70
2018-02-10T10:47:33.559Z,58.60
2018-02-10T10:48:33.545Z,56.00
2018-02-10T10:49:33.525Z,55.60
2018-02-10T10:50:33.474Z,56.10
2018-02-10T10:51:33.446Z,57.60
2018-02-10T10:52:33.732Z,56.80
2018-02-10T10:53:33.390Z,56.80
2018-02-10T10:54:33.374Z,55.70
2018-02-10T10:55:33.345Z,56.40
2018-02-10T10:56:33.318Z,56.00
2018-02-10T10:57:33.289Z,56.00
2018-02-10T10:58:33.269Z,55.20
2018-02-10T10:59:33.245Z,55.30
2018-02-10T11:00:33.221Z,55.20
2018-02-10T11:01:33.211Z,55.40
2018-02-10T11:02:33.176Z,56.90
2018-02-10T11:03:33.135Z,56.20
2018-02-10T11:04:33.113Z,54.70
2018-02-10T11:05:33.089Z,57.70
2018-02-10T11:06:33.059Z,57.00
2018-02-10T11:07:33.030Z,57.60
2018-02-10T11:08:33.013Z,55.60
2018-02-10T11:09:32.986Z,57.70
2018-02-10T11:10:32.958Z,57.20
2018-02-10T11:11:32.932Z,58.20
2018-02-10T11:12:32.905Z,57.80
2018-02-10T11:13:32.874Z,56.90
2018-02-10T11:14:32.850Z,57.70
2018-02-10T11:15:32.830Z,56.80
2018-02-10T11:16:32.805Z,55.50
2018-02-10T11:17:32.776Z,56.20
2018-02-10T11:18:32.750Z,55.80
2018-02-10T11:19:32.721Z,57.30
2018-02-10T11:20:32.707Z,56.70
2018-02-10T11:21:32.672Z,56.80
2018-02-10T11:22:32.938Z,58.30
2018-02-10T11:23:32.616Z,58.50
2018-02-10T11:24:32.584Z,55.50
2018-02-10T11:25:32.557Z,54.60
2018-02-10T11:26:32.534Z,56.70
2018-02-10T11:27:32.514Z,57.10
2018-02-10T11:28:32.478Z,58.40
2018-02-10T11:29:32.455Z,56.80
2018-02-10T11:30:32.428Z,56.60
2018-02-10T11:31:32.405Z,54.60
2018-02-10T11:32:32.385Z,55.00
2018-02-10T11:33:32.387Z,55.20
2018-02-10T11:34:32.323Z,54.80
2018-02-10T11:35:32.307Z,54.70
2018-02-10T11:36:32.281Z,53.50
2018-02-10T11:37:32.245Z,56.10
2018-02-10T11:38:32.214Z,56.00
2018-02-10T11:39:32.216Z,56.50
2018-02-10T11:40:32.167Z,56.80
2018-02-10T11:41:32.139Z,56.60
2018-02-10T11:42:32.137Z,56.40
2018-02-10T11:43:32.089Z,57.10
2018-02-10T11:44:32.071Z,55.50
2018-02-10T11:45:32.046Z,56.70
2018-02-10T11:46:32.021Z,56.20
2018-02-10T11:47:31.998Z,56.00
2018-02-10T11:48:31.969Z,56.80
2018-02-10T11:49:31.948Z,57.70
2018-02-10T11:50:31.915Z,58.20
2018-02-10T11:51:31.887Z,56.50
2018-02-10T11:52:31.870Z,54.80
2018-02-10T11:53:31.841Z,54.80
2018-02-10T11:54:31.823Z,55.40
2018-02-10T11:55:31.794Z,54.80
2018-02-10T11:56:31.768Z,55.60
2018-02-10T11:57:31.990Z,55.00
2018-02-10T11:58:31.725Z,56.80
2018-02-10T11:59:31.724Z,56.60
2018-02-10T12:00:31.701Z,55.40
2018-02-10T12:01:31.645Z,55.20
2018-02-10T12:02:31.627Z,56.00
2018-02-10T12:03:31.603Z,55.50
2018-02-10T12:04:31.581Z,52.80
2018-02-10T12:05:31.606Z,53.20
2018-02-10T12:06:31.527Z,55.70
2018-02-10T12:07:31.501Z,54.80
2018-02-10T12:08:31.480Z,53.00
2018-02-10T12:09:31.452Z,52.60
2018-02-10T12:10:31.433Z,52.70
2018-02-10T12:11:31.400Z,54.00
2018-02-10T12:12:31.376Z,54.10
2018-02-10T12:13:31.394Z,53.80
2018-02-10T12:14:31.575Z,54.00
2018-02-10T12:15:31.307Z,54.50
2018-02-10T12:16:31.277Z,53.60
2018-02-10T12:17:31.248Z,54.10
2018-02-10T12:18:31.227Z,53.90
2018-02-10T12:19:31.204Z,54.00
2018-02-10T12:20:31.178Z,53.10
2018-02-10T12:21:31.152Z,53.10
2018-02-10T12:22:31.119Z,54.70
2018-02-10T12:23:31.095Z,54.80
2018-02-10T12:24:31.084Z,53.20
2018-02-10T12:25:31.049Z,55.20
2018-02-10T12:26:31.021Z,54.70
2018-02-10T12:27:30.996Z,55.60
2018-02-10T12:28:30.974Z,54.10
2018-02-10T12:29:30.946Z,56.20
2018-02-10T12:30:30.928Z,54.70
2018-02-10T12:31:30.904Z,55.10
2018-02-10T12:32:30.866Z,54.40
2018-02-10T12:33:30.839Z,56.40
2018-02-10T12:34:30.819Z,54.10
2018-02-10T12:35:30.795Z,55.10
2018-02-10T12:36:30.773Z,55.60
2018-02-10T12:37:30.744Z,53.70
2018-02-10T12:38:30.890Z,53.60
2018-02-10T12:39:30.691Z,53.80